Time;durP1;ratioP1;P1;durP2;ratioP2;P2;SDS_P1;SDS_P2;PMS_P1;PMS_P2;Temp;Humidity;BMP_temperature;BMP_pressure;BME280_temperature;BME280_humidity;BME280_pressure;Samples;Min_cycle;Max_cycle;Signal;HPM_P1;HPM_P2
2021/01/06 00:00:38;;;;;;;15.77;5.10;;;;;;;;;;4970464;28;20101;-86
2021/01/06 00:03:05;;;;;;;12.25;4.95;;;;;;;;;;4968955;28;20083;-86
2021/01/06 00:05:32;;;;;;;12.93;4.43;;;;;;;;;;4972591;28;20617;-86
2021/01/06 00:07:59;;;;;;;15.75;4.55;;;;;;;;;;4974427;28;20423;-86
2021/01/06 00:10:32;;;;;;;11.10;4.78;;;;;;;;;;4967675;28;20235;-86
2021/01/06 00:12:59;;;;;;;12.30;4.45;;;;;;;;;;4954702;29;20051;-85
2021/01/06 00:15:27;;;;;;;9.05;4.15;;;;;;;;;;4971716;28;20465;-85
2021/01/06 00:17:55;;;;;;;10.05;4.28;;;;;;;;;;4965910;28;20455;-86
2021/01/06 00:20:22;;;;;;;13.40;4.30;;;;;;;;;;4973887;28;20047;-86
2021/01/06 00:22:49;;;;;;;11.15;4.18;;;;;;;;;;4974434;28;20047;-85
2021/01/06 00:25:23;;;;;;;25.65;4.90;;;;;;;;;;4970014;28;20129;-86
2021/01/06 00:27:49;;;;;;;13.02;4.70;;;;;;;;;;4973910;28;20074;-85
2021/01/06 00:30:25;;;;;;;10.15;4.35;;;;;;;;;;4974930;28;20050;-86
2021/01/06 00:32:52;;;;;;;18.13;4.60;;;;;;;;;;4973892;28;20578;-85
2021/01/06 00:35:27;;;;;;;13.85;4.97;;;;;;;;;;4974976;28;20063;-86
2021/01/06 00:37:57;;;;;;;15.23;5.20;;;;;;;;;;4974509;28;20129;-86
2021/01/06 00:40:28;;;;;;;11.00;4.63;;;;;;;;;;4974787;28;20047;-85
2021/01/06 00:42:59;;;;;;;17.15;5.65;;;;;;;;;;4967381;28;20086;-86
2021/01/06 00:45:27;;;;;;;16.48;5.30;;;;;;;;;;4973763;28;20047;-85
2021/01/06 00:47:54;;;;;;;15.00;5.35;;;;;;;;;;4975268;28;20049;-86
2021/01/06 00:50:23;;;;;;;14.60;4.50;;;;;;;;;;4973882;28;20404;-86
2021/01/06 00:52:49;;;;;;;15.55;5.32;;;;;;;;;;4969766;28;20078;-87
2021/01/06 00:55:16;;;;;;;22.70;5.88;;;;;;;;;;4973599;28;20097;-86
2021/01/06 00:57:43;;;;;;;12.63;4.80;;;;;;;;;;4973814;28;20085;-86
2021/01/06 01:00:11;;;;;;;11.63;4.93;;;;;;;;;;4974809;28;20543;-86
2021/01/06 01:02:37;;;;;;;17.70;5.22;;;;;;;;;;4974827;28;20070;-86
2021/01/06 01:05:04;;;;;;;15.30;5.68;;;;;;;;;;4972312;28;20154;-86
2021/01/06 01:07:31;;;;;;;15.60;4.55;;;;;;;;;;4954542;28;20075;-86
2021/01/06 01:09:57;;;;;;;17.55;5.03;;;;;;;;;;4954458;28;20089;-86
2021/01/06 01:12:34;;;;;;;21.45;5.18;;;;;;;;;;4953919;29;20095;-86
2021/01/06 01:15:01;;;;;;;16.55;4.78;;;;;;;;;;4955196;28;20082;-85
2021/01/06 01:17:28;;;;;;;10.27;4.35;;;;;;;;;;4954988;28;20485;-86
2021/01/06 01:19:54;;;;;;;17.20;4.97;;;;;;;;;;4957891;28;20090;-86
2021/01/06 01:22:21;;;;;;;13.82;4.47;;;;;;;;;;4973069;28;20073;-86
2021/01/06 01:24:48;;;;;;;15.93;4.50;;;;;;;;;;4973051;28;20640;-85
2021/01/06 01:27:17;;;;;;;19.73;5.32;;;;;;;;;;4973126;28;20129;-85
2021/01/06 01:29:44;;;;;;;14.90;4.50;;;;;;;;;;4973549;28;20191;-86
2021/01/06 01:32:11;;;;;;;14.48;4.03;;;;;;;;;;4975172;28;20078;-85
2021/01/06 01:34:40;;;;;;;11.32;3.75;;;;;;;;;;4974847;28;20101;-86
2021/01/06 01:37:06;;;;;;;10.40;3.67;;;;;;;;;;4973532;28;20488;-86
2021/01/06 01:39:33;;;;;;;13.57;3.85;;;;;;;;;;4972891;28;20447;-86
2021/01/06 01:42:00;;;;;;;15.60;4.10;;;;;;;;;;4972044;28;20078;-86
2021/01/06 01:44:27;;;;;;;11.05;4.60;;;;;;;;;;4973392;28;20075;-87
2021/01/06 01:47:00;;;;;;;16.50;4.10;;;;;;;;;;4967581;28;20067;-86
2021/01/06 01:49:29;;;;;;;11.45;3.78;;;;;;;;;;4969819;28;20101;-86
2021/01/06 01:51:58;;;;;;;11.90;3.90;;;;;;;;;;4969878;28;20074;-86
2021/01/06 01:54:35;;;;;;;11.85;3.83;;;;;;;;;;4972663;28;20158;-86
2021/01/06 01:57:18;;;;;;;9.65;3.40;;;;;;;;;;4973018;28;20054;-86
2021/01/06 02:00:04;;;;;;;8.20;3.55;;;;;;;;;;4972878;28;20125;-86
2021/01/06 02:02:42;;;;;;;11.77;3.83;;;;;;;;;;4967656;28;20081;-87
2021/01/06 02:05:12;;;;;;;10.48;4.25;;;;;;;;;;4972546;28;20457;-86
2021/01/06 02:07:58;;;;;;;12.38;3.38;;;;;;;;;;4972691;28;20385;-86
2021/01/06 02:10:32;;;;;;;10.70;3.65;;;;;;;;;;4972585;28;20054;-86
2021/01/06 02:13:02;;;;;;;9.73;3.97;;;;;;;;;;4973592;28;20078;-86
2021/01/06 02:15:28;;;;;;;10.07;3.42;;;;;;;;;;4972447;28;20466;-86
2021/01/06 02:17:58;;;;;;;15.35;3.45;;;;;;;;;;4974095;28;20070;-86
2021/01/06 02:20:26;;;;;;;14.00;3.80;;;;;;;;;;4974042;28;20074;-87
2021/01/06 02:22:53;;;;;;;13.35;3.70;;;;;;;;;;4968175;28;20097;-87
2021/01/06 02:25:21;;;;;;;8.00;3.33;;;;;;;;;;4972876;28;20078;-87
2021/01/06 02:27:48;;;;;;;16.45;3.97;;;;;;;;;;4973901;28;20141;-87
2021/01/06 02:30:18;;;;;;;8.68;3.40;;;;;;;;;;4973169;28;20149;-86
2021/01/06 02:32:45;;;;;;;9.85;3.33;;;;;;;;;;4974320;28;20146;-86
2021/01/06 02:35:14;;;;;;;9.77;3.50;;;;;;;;;;4974106;28;20132;-86
2021/01/06 02:37:41;;;;;;;11.90;3.30;;;;;;;;;;4973214;28;20587;-87
2021/01/06 02:40:08;;;;;;;8.32;3.03;;;;;;;;;;4973202;28;20082;-86
2021/01/06 02:42:35;;;;;;;7.10;2.42;;;;;;;;;;4974135;28;20093;-86
2021/01/06 02:45:04;;;;;;;7.35;2.58;;;;;;;;;;4973864;28;20051;-86
2021/01/06 02:47:39;;;;;;;7.28;2.83;;;;;;;;;;4974872;28;20770;-87
2021/01/06 02:50:07;;;;;;;3.72;2.00;;;;;;;;;;4974268;28;20129;-88
2021/01/06 02:52:43;;;;;;;5.05;2.35;;;;;;;;;;4974222;28;20722;-87
2021/01/06 02:55:20;;;;;;;5.05;2.45;;;;;;;;;;4971783;28;20093;-87
2021/01/06 02:57:47;;;;;;;6.80;2.17;;;;;;;;;;4974457;28;20097;-87
2021/01/06 03:00:15;;;;;;;10.18;2.72;;;;;;;;;;4974625;28;20138;-86
2021/01/06 03:02:44;;;;;;;6.15;2.75;;;;;;;;;;4978101;28;20491;-87
2021/01/06 03:05:18;;;;;;;7.30;2.60;;;;;;;;;;4978154;28;20094;-87
2021/01/06 03:07:45;;;;;;;11.73;2.20;;;;;;;;;;4977278;28;20086;-87
2021/01/06 03:10:20;;;;;;;7.85;2.70;;;;;;;;;;4978313;28;20089;-86
2021/01/06 03:12:48;;;;;;;8.70;2.65;;;;;;;;;;4976495;28;20461;-86
2021/01/06 03:15:16;;;;;;;4.93;2.10;;;;;;;;;;4976896;28;20043;-87
2021/01/06 03:17:47;;;;;;;6.65;2.22;;;;;;;;;;4977004;28;20772;-87
2021/01/06 03:20:20;;;;;;;4.93;2.15;;;;;;;;;;4977145;28;20130;-87
2021/01/06 03:22:49;;;;;;;5.55;2.47;;;;;;;;;;4976765;28;20465;-87
2021/01/06 03:25:17;;;;;;;5.78;2.22;;;;;;;;;;4956655;28;20493;-86
2021/01/06 03:27:45;;;;;;;5.45;2.28;;;;;;;;;;4966085;28;20090;-85
2021/01/06 03:30:17;;;;;;;7.20;2.17;;;;;;;;;;4974971;28;20460;-85
2021/01/06 03:33:01;;;;;;;6.22;2.03;;;;;;;;;;4974779;28;20539;-85
2021/01/06 03:35:28;;;;;;;6.70;2.22;;;;;;;;;;4965997;28;20074;-84
2021/01/06 03:37:56;;;;;;;4.05;2.03;;;;;;;;;;4956808;28;20094;-85
2021/01/06 03:40:39;;;;;;;5.82;1.98;;;;;;;;;;4956237;29;20540;-86
2021/01/06 03:43:08;;;;;;;4.03;1.85;;;;;;;;;;4957300;28;20556;-86
2021/01/06 03:45:39;;;;;;;4.43;2.00;;;;;;;;;;4955547;28;20491;-86
2021/01/06 03:48:18;;;;;;;6.60;2.03;;;;;;;;;;4955809;28;20078;-85
2021/01/06 03:50:45;;;;;;;6.13;2.42;;;;;;;;;;4974399;28;20952;-86
2021/01/06 03:53:13;;;;;;;7.43;2.08;;;;;;;;;;4974552;28;20086;-86
2021/01/06 03:55:51;;;;;;;7.32;2.50;;;;;;;;;;4975972;28;20099;-85
2021/01/06 03:58:36;;;;;;;5.13;2.08;;;;;;;;;;4975422;28;20051;-86
2021/01/06 04:01:13;;;;;;;6.22;2.47;;;;;;;;;;4974124;28;20047;-85
2021/01/06 04:03:51;;;;;;;4.25;2.10;;;;;;;;;;4974592;28;20074;-85
2021/01/06 04:06:19;;;;;;;7.30;2.30;;;;;;;;;;4974032;28;20539;-85
2021/01/06 04:09:08;;;;;;;4.32;2.03;;;;;;;;;;4974616;28;20121;-86
2021/01/06 04:11:36;;;;;;;5.15;1.65;;;;;;;;;;4973824;28;20142;-86
2021/01/06 04:14:03;;;;;;;10.57;1.92;;;;;;;;;;4973713;28;20646;-87
2021/01/06 04:16:32;;;;;;;7.50;2.42;;;;;;;;;;4975293;28;20059;-86
2021/01/06 04:18:59;;;;;;;2.88;1.42;;;;;;;;;;4974012;28;20074;-87
2021/01/06 04:21:29;;;;;;;3.70;1.63;;;;;;;;;;4974827;28;20491;-87
2021/01/06 04:23:57;;;;;;;3.58;1.50;;;;;;;;;;4974142;28;20067;-86
2021/01/06 04:26:26;;;;;;;5.82;1.85;;;;;;;;;;4975013;28;20475;-87
2021/01/06 04:28:53;;;;;;;3.35;1.67;;;;;;;;;;4975598;28;20081;-86
2021/01/06 04:31:21;;;;;;;3.65;1.90;;;;;;;;;;4974787;28;20858;-87
2021/01/06 04:33:56;;;;;;;7.50;2.03;;;;;;;;;;4973881;28;20050;-86
2021/01/06 04:36:25;;;;;;;5.13;2.20;;;;;;;;;;4973819;28;20603;-86
2021/01/06 04:38:53;;;;;;;8.95;2.47;;;;;;;;;;4975198;28;20071;-87
2021/01/06 04:41:31;;;;;;;8.07;3.13;;;;;;;;;;4974779;28;20097;-87
2021/01/06 04:44:07;;;;;;;6.20;1.95;;;;;;;;;;4967942;28;20073;-86
2021/01/06 04:46:50;;;;;;;4.80;2.10;;;;;;;;;;4974859;28;20054;-86
2021/01/06 04:49:18;;;;;;;5.13;1.87;;;;;;;;;;4973785;28;20043;-86
2021/01/06 04:51:56;;;;;;;3.83;1.75;;;;;;;;;;4973475;28;20634;-86
2021/01/06 04:57:37;;;;;;;4.43;1.50;;;;;;;;;;4974525;28;20145;-86
2021/01/06 05:00:23;;;;;;;3.33;1.55;;;;;;;;;;4974958;28;20051;-86
2021/01/06 05:03:08;;;;;;;5.35;1.73;;;;;;;;;;4974678;28;20113;-86
2021/01/06 05:05:47;;;;;;;2.35;1.30;;;;;;;;;;4974350;28;20082;-86
2021/01/06 05:08:20;;;;;;;5.00;1.90;;;;;;;;;;4973057;28;20043;-86
2021/01/06 05:10:52;;;;;;;4.07;1.40;;;;;;;;;;4972922;28;20125;-86
2021/01/06 05:13:47;;;;;;;2.80;1.55;;;;;;;;;;4974033;28;20109;-86
2021/01/06 05:16:17;;;;;;;4.13;1.15;;;;;;;;;;4959491;28;20053;-87
2021/01/06 05:18:44;;;;;;;2.20;1.00;;;;;;;;;;4964703;28;20674;-87
2021/01/06 05:21:17;;;;;;;2.00;1.10;;;;;;;;;;4973642;28;20078;-86
2021/01/06 05:23:48;;;;;;;6.68;1.35;;;;;;;;;;4973053;28;20051;-86
2021/01/06 05:26:15;;;;;;;4.85;1.42;;;;;;;;;;4972855;28;20731;-86
2021/01/06 05:28:55;;;;;;;5.75;1.30;;;;;;;;;;4972703;28;20122;-87
2021/01/06 05:31:21;;;;;;;4.63;1.45;;;;;;;;;;4974067;28;20093;-87
2021/01/06 05:33:49;;;;;;;3.17;1.40;;;;;;;;;;4973261;28;20054;-88
2021/01/06 05:36:22;;;;;;;3.15;1.17;;;;;;;;;;4973140;28;20619;-87
2021/01/06 05:38:49;;;;;;;3.80;1.00;;;;;;;;;;4972694;28;20051;-87
2021/01/06 05:41:17;;;;;;;2.83;1.20;;;;;;;;;;4972267;28;20130;-87
2021/01/06 05:43:50;;;;;;;2.75;1.23;;;;;;;;;;4974426;28;20397;-87
2021/01/06 05:46:25;;;;;;;5.25;1.70;;;;;;;;;;4973243;28;20199;-85
2021/01/06 05:49:19;;;;;;;14.05;7.97;;;;;;;;;;4972944;28;20070;-87
2021/01/06 05:52:02;;;;;;;15.50;8.55;;;;;;;;;;4965794;28;20087;-87
2021/01/06 05:54:47;;;;;;;4.28;2.22;;;;;;;;;;4972999;28;20103;-89
2021/01/06 05:57:32;;;;;;;3.80;2.15;;;;;;;;;;4974875;28;20054;-90
2021/01/06 06:00:14;;;;;;;6.50;4.25;;;;;;;;;;4974452;28;20046;-88
2021/01/06 06:03:16;;;;;;;;;;;;;;;;;;;;;
2021/01/06 06:06:32;;;;;;;5.32;1.85;;;;;;;;;;4954313;28;20138;-84
2021/01/06 06:09:25;;;;;;;5.15;2.33;;;;;;;;;;4972011;28;20050;-87
2021/01/06 06:12:03;;;;;;;7.00;2.00;;;;;;;;;;4972042;28;20058;-84
2021/01/06 06:14:46;;;;;;;5.32;1.95;;;;;;;;;;4973772;28;20047;-83
2021/01/06 06:17:18;;;;;;;3.35;1.42;;;;;;;;;;4972513;28;20102;-86
2021/01/06 06:19:48;;;;;;;2.58;1.15;;;;;;;;;;4972694;28;20051;-84
2021/01/06 06:22:36;;;;;;;3.75;1.67;;;;;;;;;;4973536;28;20054;-87
2021/01/06 06:25:12;;;;;;;5.43;1.50;;;;;;;;;;4972504;28;20113;-85
2021/01/06 06:27:40;;;;;;;8.00;1.92;;;;;;;;;;4972580;28;20117;-87
2021/01/06 06:30:09;;;;;;;4.57;1.63;;;;;;;;;;4953429;29;20833;-84
2021/01/06 06:32:48;;;;;;;6.25;1.80;;;;;;;;;;4953286;28;20115;-84
2021/01/06 06:35:15;;;;;;;4.47;1.88;;;;;;;;;;4971519;28;20054;-85
2021/01/06 06:41:04;;;;;;;5.47;1.60;;;;;;;;;;4976239;28;20051;-83
2021/01/06 06:43:44;;;;;;;6.70;1.55;;;;;;;;;;4975428;28;20079;-82
2021/01/06 06:46:37;;;;;;;2.63;1.35;;;;;;;;;;4972948;28;20130;-83
2021/01/06 06:49:15;;;;;;;8.73;2.00;;;;;;;;;;4969737;28;20562;-82
2021/01/06 06:51:52;;;;;;;4.10;1.52;;;;;;;;;;4977083;28;20134;-81
2021/01/06 06:54:35;;;;;;;4.70;1.30;;;;;;;;;;4976272;28;20142;-80
2021/01/06 06:57:08;;;;;;;4.20;1.85;;;;;;;;;;4976069;28;20086;-83
2021/01/06 06:59:54;;;;;;;2.33;1.10;;;;;;;;;;4976463;28;20460;-82
2021/01/06 07:02:20;;;;;;;4.18;1.60;;;;;;;;;;4974869;28;20126;-82
2021/01/06 07:04:48;;;;;;;3.92;1.13;;;;;;;;;;4967470;28;20126;-82
2021/01/06 07:07:40;;;;;;;6.20;1.40;;;;;;;;;;4976342;28;20457;-82
2021/01/06 07:10:19;;;;;;;24.77;7.65;;;;;;;;;;4970018;28;20137;-82
2021/01/06 07:12:47;;;;;;;43.58;17.15;;;;;;;;;;4975392;28;20411;-81
2021/01/06 07:15:22;;;;;;;62.70;24.48;;;;;;;;;;4975239;28;20047;-81
2021/01/06 07:17:50;;;;;;;52.60;24.08;;;;;;;;;;4976569;28;20090;-81
2021/01/06 07:20:31;;;;;;;14.52;7.55;;;;;;;;;;4963016;28;20133;-81
2021/01/06 07:23:02;;;;;;;5.20;2.95;;;;;;;;;;4955745;29;20106;-81
2021/01/06 07:25:31;;;;;;;8.38;6.13;;;;;;;;;;4957363;28;20079;-81
2021/01/06 07:28:14;;;;;;;8.68;4.20;;;;;;;;;;4956748;28;20548;-81
2021/01/06 07:30:43;;;;;;;5.28;3.33;;;;;;;;;;4964921;28;20411;-81
2021/01/06 07:33:12;;;;;;;8.85;2.67;;;;;;;;;;4975832;28;20051;-81
2021/01/06 07:35:58;;;;;;;13.93;6.70;;;;;;;;;;4975638;28;20079;-82
2021/01/06 07:38:32;;;;;;;7.55;4.13;;;;;;;;;;4975716;28;20129;-81
2021/01/06 07:41:00;;;;;;;8.32;5.20;;;;;;;;;;4974763;28;20039;-81
2021/01/06 07:43:27;;;;;;;7.55;2.58;;;;;;;;;;4976360;28;20125;-81
2021/01/06 07:46:00;;;;;;;6.00;2.10;;;;;;;;;;4967922;28;20078;-82
2021/01/06 07:48:38;;;;;;;3.97;1.88;;;;;;;;;;4974946;28;20078;-80
2021/01/06 07:51:09;;;;;;;7.95;1.77;;;;;;;;;;4974673;28;20059;-80
2021/01/06 07:53:39;;;;;;;4.57;2.55;;;;;;;;;;4975255;28;20080;-81
2021/01/06 07:56:25;;;;;;;8.15;2.65;;;;;;;;;;4975446;28;20047;-81
2021/01/06 07:58:54;;;;;;;6.45;2.55;;;;;;;;;;4975283;28;20320;-82
2021/01/06 08:01:32;;;;;;;7.68;2.28;;;;;;;;;;4963110;28;20126;-82
2021/01/06 08:04:31;;;;;;;9.05;2.25;;;;;;;;;;4968393;28;20047;-82
2021/01/06 08:06:59;;;;;;;3.38;1.70;;;;;;;;;;4948894;28;20078;-83
2021/01/06 08:09:29;;;;;;;3.38;1.73;;;;;;;;;;4974029;28;20090;-83
2021/01/06 08:11:56;;;;;;;7.82;1.75;;;;;;;;;;4966278;28;20130;-82
2021/01/06 08:14:28;;;;;;;7.78;1.23;;;;;;;;;;4966648;28;20079;-82
2021/01/06 08:17:01;;;;;;;4.13;1.30;;;;;;;;;;4962765;28;20082;-83
2021/01/06 08:19:30;;;;;;;3.72;1.30;;;;;;;;;;4975632;28;20074;-83
2021/01/06 08:22:15;;;;;;;12.77;1.60;;;;;;;;;;4975093;28;20181;-82
2021/01/06 08:24:44;;;;;;;;;;;;;;;;;;4975623;28;20452;-82
2021/01/06 08:27:16;;;;;;;4.80;1.50;;;;;;;;;;4975165;28;20017;-82
2021/01/06 08:29:43;;;;;;;5.38;1.33;;;;;;;;;;4975176;28;20667;-83
2021/01/06 08:32:09;;;;;;;3.95;1.08;;;;;;;;;;4975139;28;20122;-82
2021/01/06 08:34:38;;;;;;;4.07;1.92;;;;;;;;;;4975331;28;20047;-83
2021/01/06 08:37:13;;;;;;;2.60;1.30;;;;;;;;;;4975238;28;20097;-84
2021/01/06 08:39:53;;;;;;;4.73;1.50;;;;;;;;;;4975209;28;20093;-83
2021/01/06 08:42:21;;;;;;;3.08;1.00;;;;;;;;;;4974508;28;20051;-83
2021/01/06 08:44:49;;;;;;;1.95;0.50;;;;;;;;;;4973444;28;20134;-83
2021/01/06 08:47:27;;;;;;;6.50;0.95;;;;;;;;;;4973636;28;20043;-83
2021/01/06 08:49:54;;;;;;;3.08;0.70;;;;;;;;;;4966950;28;20511;-82
2021/01/06 08:52:22;;;;;;;2.40;1.10;;;;;;;;;;4973540;28;20097;-83
2021/01/06 08:55:03;;;;;;;1.50;0.85;;;;;;;;;;4974731;28;20109;-83
2021/01/06 08:57:30;;;;;;;1.25;0.80;;;;;;;;;;4970625;28;20468;-85
2021/01/06 08:59:57;;;;;;;2.55;0.77;;;;;;;;;;4971322;28;20097;-84
2021/01/06 09:02:33;;;;;;;4.35;0.90;;;;;;;;;;4974385;28;20078;-84
2021/01/06 09:05:00;;;;;;;10.35;1.63;;;;;;;;;;4974080;28;20466;-82
2021/01/06 09:07:30;;;;;;;1.80;0.90;;;;;;;;;;4973813;28;20047;-82
2021/01/06 09:09:57;;;;;;;4.90;0.90;;;;;;;;;;4974644;28;20121;-84
2021/01/06 09:12:42;;;;;;;4.50;1.55;;;;;;;;;;4973879;28;20082;-83
2021/01/06 09:15:42;;;;;;;2.13;0.90;;;;;;;;;;4975625;28;20051;-82
2021/01/06 09:18:21;;;;;;;3.35;1.15;;;;;;;;;;4969275;28;20058;-82
2021/01/06 09:21:07;;;;;;;4.68;1.20;;;;;;;;;;4974535;28;20217;-82
2021/01/06 09:23:34;;;;;;;5.95;1.25;;;;;;;;;;4974291;28;20047;-82
2021/01/06 09:26:02;;;;;;;4.15;1.10;;;;;;;;;;4973512;28;20074;-82
2021/01/06 09:28:29;;;;;;;5.28;1.48;;;;;;;;;;4974021;28;20039;-82
2021/01/06 09:31:03;;;;;;;41.42;5.88;;;;;;;;;;4970923;28;20134;-81
2021/01/06 09:33:32;;;;;;;11.05;2.35;;;;;;;;;;4971105;28;20070;-81
2021/01/06 09:36:00;;;;;;;2.25;1.10;;;;;;;;;;4973634;28;20551;-81
2021/01/06 09:38:32;;;;;;;3.33;1.77;;;;;;;;;;4973241;28;20046;-83
2021/01/06 09:41:08;;;;;;;2.60;1.23;;;;;;;;;;4972765;28;20078;-84
2021/01/06 09:43:39;;;;;;;2.88;1.27;;;;;;;;;;4973840;28;20134;-84
2021/01/06 09:46:21;;;;;;;7.20;1.20;;;;;;;;;;4972929;28;20074;-85
2021/01/06 09:48:52;;;;;;;1.77;1.10;;;;;;;;;;4953456;29;20137;-84
2021/01/06 09:51:19;;;;;;;4.22;1.67;;;;;;;;;;4954096;28;20087;-83
2021/01/06 09:53:48;;;;;;;2.83;1.17;;;;;;;;;;4954699;28;20055;-84
2021/01/06 09:56:15;;;;;;;3.97;1.60;;;;;;;;;;4953561;29;20051;-83
2021/01/06 09:58:42;;;;;;;2.63;1.10;;;;;;;;;;4964354;28;20078;-83
2021/01/06 10:01:15;;;;;;;4.72;1.05;;;;;;;;;;4966898;28;20548;-83
2021/01/06 10:03:43;;;;;;;1.80;0.90;;;;;;;;;;4955117;28;20113;-83
2021/01/06 10:06:09;;;;;;;4.68;1.25;;;;;;;;;;4953744;29;20184;-83
2021/01/06 10:08:41;;;;;;;2.90;1.50;;;;;;;;;;4953662;29;20051;-83
2021/01/06 10:11:12;;;;;;;7.43;2.00;;;;;;;;;;4952629;29;20085;-83
2021/01/06 10:14:08;;;;;;;3.58;1.73;;;;;;;;;;4954440;28;20051;-83
2021/01/06 10:16:37;;;;;;;3.40;1.58;;;;;;;;;;4956727;28;20081;-83
2021/01/06 10:19:26;;;;;;;12.77;2.55;;;;;;;;;;4973365;28;20078;-83
2021/01/06 10:22:18;;;;;;;7.38;3.40;;;;;;;;;;4956689;28;20079;-84
2021/01/06 10:24:54;;;;;;;5.38;3.03;;;;;;;;;;4963954;28;20050;-84
2021/01/06 10:27:25;;;;;;;6.43;2.45;;;;;;;;;;4972169;28;20496;-84
2021/01/06 10:30:23;;;;;;;13.40;6.50;;;;;;;;;;4974561;28;20042;-84
2021/01/06 10:32:49;;;;;;;11.38;4.72;;;;;;;;;;4973225;28;20051;-84
2021/01/06 10:35:16;;;;;;;5.28;3.08;;;;;;;;;;4972926;28;20089;-84
2021/01/06 10:37:43;;;;;;;6.90;3.65;;;;;;;;;;4973236;28;20094;-84
2021/01/06 10:40:11;;;;;;;8.07;3.83;;;;;;;;;;4973626;28;20054;-84
2021/01/06 10:42:38;;;;;;;22.95;12.13;;;;;;;;;;4973340;28;20052;-84
2021/01/06 10:45:25;;;;;;;9.73;4.60;;;;;;;;;;4971943;28;20636;-83
2021/01/06 10:47:53;;;;;;;6.28;3.83;;;;;;;;;;4971567;28;20050;-84
2021/01/06 10:50:41;;;;;;;9.20;4.20;;;;;;;;;;4973240;28;20126;-84
2021/01/06 10:53:17;;;;;;;6.78;3.70;;;;;;;;;;4958199;28;20043;-83
2021/01/06 10:55:51;;;;;;;7.28;3.28;;;;;;;;;;4971709;28;20078;-83
2021/01/06 10:58:21;;;;;;;4.20;2.58;;;;;;;;;;4973110;28;20142;-83
2021/01/06 11:01:10;;;;;;;6.05;2.13;;;;;;;;;;4972036;28;20083;-83
2021/01/06 11:04:09;;;;;;;4.75;2.03;;;;;;;;;;4973256;28;20051;-84
2021/01/06 11:06:51;;;;;;;6.35;2.28;;;;;;;;;;4961364;28;20102;-84
2021/01/06 11:09:37;;;;;;;6.57;2.30;;;;;;;;;;4971710;28;20043;-83
2021/01/06 11:12:03;;;;;;;4.93;2.08;;;;;;;;;;4964870;28;20490;-84
2021/01/06 11:14:48;;;;;;;2.95;1.52;;;;;;;;;;4972174;28;20043;-84
2021/01/06 11:17:18;;;;;;;5.30;2.13;;;;;;;;;;4971746;28;20082;-83
2021/01/06 11:19:44;;;;;;;6.93;3.15;;;;;;;;;;4973382;28;20047;-84
2021/01/06 11:22:18;;;;;;;4.85;1.67;;;;;;;;;;4972403;28;20138;-84
2021/01/06 11:24:55;;;;;;;2.25;1.45;;;;;;;;;;4976328;28;20476;-84
2021/01/06 11:27:48;;;;;;;7.47;2.45;;;;;;;;;;4976227;28;20046;-84
2021/01/06 11:30:32;;;;;;;5.65;2.65;;;;;;;;;;4955735;28;20070;-84
2021/01/06 11:33:17;;;;;;;9.43;4.32;;;;;;;;;;4966110;28;20043;-83
2021/01/06 11:35:46;;;;;;;6.50;3.40;;;;;;;;;;4973616;28;20050;-83
2021/01/06 11:38:41;;;;;;;7.88;4.10;;;;;;;;;;4969995;28;20121;-83
2021/01/06 11:41:17;;;;;;;13.00;6.22;;;;;;;;;;4970685;28;20129;-86
2021/01/06 11:43:59;;;;;;;10.88;6.15;;;;;;;;;;4970628;28;20051;-84
2021/01/06 11:46:36;;;;;;;5.60;3.30;;;;;;;;;;4970011;28;20855;-84
2021/01/06 11:49:14;;;;;;;4.95;2.65;;;;;;;;;;4971451;28;20053;-85
2021/01/06 11:52:01;;;;;;;3.75;1.92;;;;;;;;;;4973275;28;20106;-85
2021/01/06 11:54:29;;;;;;;9.75;3.67;;;;;;;;;;4972707;28;20089;-85
2021/01/06 11:57:18;;;;;;;8.73;3.08;;;;;;;;;;4970277;28;20047;-85
2021/01/06 11:59:53;;;;;;;7.95;3.03;;;;;;;;;;4969152;28;20641;-85
2021/01/06 12:02:23;;;;;;;5.88;3.63;;;;;;;;;;4969167;28;20154;-84
2021/01/06 12:05:09;;;;;;;11.40;3.63;;;;;;;;;;4970212;28;20101;-84
2021/01/06 12:07:48;;;;;;;4.78;2.65;;;;;;;;;;4969730;28;20054;-84
2021/01/06 12:10:23;;;;;;;6.18;3.15;;;;;;;;;;4969943;28;20051;-82
2021/01/06 12:13:03;;;;;;;9.33;3.90;;;;;;;;;;4968806;28;20085;-85
2021/01/06 12:18:32;;;;;;;3.85;1.80;;;;;;;;;;4975374;28;20543;-85
2021/01/06 12:21:00;;;;;;;4.38;1.40;;;;;;;;;;4967957;28;20615;-85
2021/01/06 12:23:38;;;;;;;9.75;4.32;;;;;;;;;;4965930;28;20460;-85
2021/01/06 12:26:05;;;;;;;18.48;7.78;;;;;;;;;;4954283;29;20083;-85
2021/01/06 12:28:43;;;;;;;9.73;3.63;;;;;;;;;;4953807;29;20603;-85
2021/01/06 12:31:16;;;;;;;10.18;3.88;;;;;;;;;;4953646;28;20058;-85
2021/01/06 12:33:43;;;;;;;6.55;2.83;;;;;;;;;;4964425;28;20105;-85
2021/01/06 12:36:17;;;;;;;3.97;2.13;;;;;;;;;;4975147;28;20137;-85
2021/01/06 12:38:55;;;;;;;6.47;2.30;;;;;;;;;;4975293;28;20101;-85
2021/01/06 12:41:26;;;;;;;5.60;2.05;;;;;;;;;;4974976;28;20055;-84
2021/01/06 12:43:59;;;;;;;5.63;2.63;;;;;;;;;;4974086;28;20058;-85
2021/01/06 12:46:35;;;;;;;7.28;4.13;;;;;;;;;;4975243;28;20047;-85
2021/01/06 12:49:24;;;;;;;6.57;2.70;;;;;;;;;;4974021;28;20075;-85
2021/01/06 12:51:50;;;;;;;7.70;3.67;;;;;;;;;;4973490;28;20493;-85
2021/01/06 12:54:18;;;;;;;6.95;4.13;;;;;;;;;;4974682;28;20062;-85
2021/01/06 12:57:07;;;;;;;5.05;2.78;;;;;;;;;;4974273;28;20061;-85
2021/01/06 12:59:51;;;;;;;6.97;3.25;;;;;;;;;;4973657;28;20086;-85
2021/01/06 13:02:36;;;;;;;8.10;3.20;;;;;;;;;;4973703;28;20051;-84
2021/01/06 13:05:18;;;;;;;7.40;2.53;;;;;;;;;;4973285;28;20575;-85
2021/01/06 13:07:50;;;;;;;8.48;2.33;;;;;;;;;;4973918;28;20075;-84
2021/01/06 13:10:17;;;;;;;10.77;4.43;;;;;;;;;;4973188;28;20718;-85
2021/01/06 13:12:48;;;;;;;13.93;5.25;;;;;;;;;;4973375;28;20051;-85
2021/01/06 13:15:25;;;;;;;15.05;4.93;;;;;;;;;;4974836;28;20050;-85
2021/01/06 13:18:08;;;;;;;10.10;3.85;;;;;;;;;;4973482;28;20082;-85
2021/01/06 13:20:40;;;;;;;6.55;3.72;;;;;;;;;;4973519;28;20411;-85
2021/01/06 13:23:25;;;;;;;6.18;3.63;;;;;;;;;;4974105;28;20168;-85
2021/01/06 13:26:03;;;;;;;10.23;4.97;;;;;;;;;;4974158;28;20125;-84
2021/01/06 13:28:35;;;;;;;10.93;4.95;;;;;;;;;;4973274;28;20051;-84
2021/01/06 13:31:26;;;;;;;12.38;5.40;;;;;;;;;;4973188;28;20046;-87
2021/01/06 13:34:05;;;;;;;11.25;5.07;;;;;;;;;;4966067;28;20047;-84
2021/01/06 13:36:45;;;;;;;16.38;7.13;;;;;;;;;;4974102;28;20904;-85
2021/01/06 13:39:27;;;;;;;9.73;5.07;;;;;;;;;;4972647;28;20042;-84
2021/01/06 13:41:54;;;;;;;10.43;3.92;;;;;;;;;;4972697;28;20078;-84
2021/01/06 13:44:34;;;;;;;62.83;23.50;;;;;;;;;;4972781;28;20082;-84
2021/01/06 13:47:14;;;;;;;9.20;4.35;;;;;;;;;;4966479;28;20463;-85
2021/01/06 13:49:47;;;;;;;8.52;3.10;;;;;;;;;;4972779;28;20518;-85
2021/01/06 13:52:26;;;;;;;24.15;8.45;;;;;;;;;;4972589;28;20086;-84
2021/01/06 13:55:11;;;;;;;6.35;2.88;;;;;;;;;;4964293;28;20078;-85
2021/01/06 13:57:38;;;;;;;;;;;;;;;;;;4973364;28;20054;-85
2021/01/06 14:00:13;;;;;;;5.70;2.60;;;;;;;;;;4972512;28;19930;-85
2021/01/06 14:02:50;;;;;;;9.52;4.50;;;;;;;;;;4970449;28;20306;-86
2021/01/06 14:05:35;;;;;;;6.45;3.60;;;;;;;;;;4973966;28;20104;-85
2021/01/06 14:08:26;;;;;;;11.48;5.93;;;;;;;;;;4967095;28;20055;-85
2021/01/06 14:11:11;;;;;;;10.10;3.38;;;;;;;;;;4972008;28;20074;-85
2021/01/06 14:13:47;;;;;;;20.48;10.45;;;;;;;;;;4972022;28;20054;-85
2021/01/06 14:16:34;;;;;;;14.85;6.10;;;;;;;;;;4972429;28;20058;-85
2021/01/06 14:19:17;;;;;;;8.45;3.00;;;;;;;;;;4973480;28;20739;-85
2021/01/06 14:21:50;;;;;;;16.02;6.13;;;;;;;;;;4971442;28;20094;-84
2021/01/06 14:24:19;;;;;;;13.38;3.85;;;;;;;;;;4973321;28;20067;-85
2021/01/06 14:26:48;;;;;;;14.20;4.20;;;;;;;;;;4973768;28;20050;-84
2021/01/06 14:29:15;;;;;;;4.80;2.35;;;;;;;;;;4972535;28;20484;-85
2021/01/06 14:31:44;;;;;;;7.72;4.35;;;;;;;;;;4973010;28;20058;-84
2021/01/06 14:34:20;;;;;;;10.95;4.57;;;;;;;;;;4972433;28;20109;-84
2021/01/06 14:36:55;;;;;;;6.45;2.90;;;;;;;;;;4972256;28;20149;-84
2021/01/06 14:39:28;;;;;;;6.53;2.30;;;;;;;;;;4970564;28;20047;-84
2021/01/06 14:42:14;;;;;;;7.95;1.90;;;;;;;;;;4972494;28;20047;-85
2021/01/06 14:44:53;;;;;;;5.68;2.20;;;;;;;;;;4972916;28;20496;-83
2021/01/06 14:47:41;;;;;;;5.22;2.00;;;;;;;;;;4971835;28;20054;-83
2021/01/06 14:50:10;;;;;;;5.50;2.00;;;;;;;;;;4973366;28;20046;-83
2021/01/06 14:52:55;;;;;;;4.22;3.10;;;;;;;;;;4972926;28;20059;-84
2021/01/06 14:55:24;;;;;;;4.18;2.08;;;;;;;;;;4973111;28;20571;-84
2021/01/06 14:58:07;;;;;;;4.55;1.90;;;;;;;;;;4975836;28;20054;-84
2021/01/06 15:00:37;;;;;;;5.18;2.10;;;;;;;;;;4965831;28;20496;-84
2021/01/06 15:03:07;;;;;;;5.40;2.25;;;;;;;;;;4955700;29;20134;-84
2021/01/06 15:05:38;;;;;;;10.77;2.83;;;;;;;;;;4956430;28;20047;-84
2021/01/06 15:08:13;;;;;;;11.98;4.43;;;;;;;;;;4957423;28;20107;-83
2021/01/06 15:10:42;;;;;;;7.97;3.58;;;;;;;;;;4981334;28;20134;-84
2021/01/06 15:13:24;;;;;;;11.82;3.75;;;;;;;;;;4994690;28;20133;-84
2021/01/06 15:15:52;;;;;;;7.93;3.35;;;;;;;;;;4994629;28;20618;-84
2021/01/06 15:18:27;;;;;;;6.68;3.20;;;;;;;;;;4994659;28;20054;-84
2021/01/06 15:21:00;;;;;;;4.75;2.30;;;;;;;;;;4994638;28;20061;-84
2021/01/06 15:23:35;;;;;;;5.63;2.65;;;;;;;;;;4994368;28;20487;-83
2021/01/06 15:26:07;;;;;;;4.93;2.88;;;;;;;;;;4994647;28;20146;-84
2021/01/06 15:28:37;;;;;;;4.18;2.30;;;;;;;;;;4994875;28;20058;-84
2021/01/06 15:31:13;;;;;;;6.35;2.22;;;;;;;;;;4976176;28;20130;-83